createdAt,value
2022-12-20T00:00:57.879Z,73.12
2022-12-20T00:03:24.523Z,72.05
2022-12-20T00:05:51.150Z,70.42
2022-12-20T00:08:17.914Z,68.74
2022-12-20T00:10:46.025Z,68.90
2022-12-20T00:13:13.637Z,69.13
2022-12-20T00:15:40.362Z,68.42
2022-12-20T00:18:07.454Z,68.60
2022-12-20T00:20:34.201Z,69.19
2022-12-20T00:23:01.254Z,68.39
2022-12-20T00:25:27.975Z,67.57
2022-12-20T00:27:54.564Z,67.48
2022-12-20T00:30:21.263Z,67.61
2022-12-20T00:32:47.847Z,67.62
2022-12-20T00:35:14.609Z,67.31
2022-12-20T00:37:41.255Z,66.90
2022-12-20T00:40:08.898Z,66.84
2022-12-20T00:42:35.604Z,67.08
2022-12-20T00:45:03.056Z,67.57
2022-12-20T00:47:29.611Z,69.18
2022-12-20T00:49:56.200Z,69.31
2022-12-20T00:52:22.823Z,69.54
2022-12-20T00:54:49.406Z,69.39
2022-12-20T00:57:16.031Z,68.87
2022-12-20T00:59:42.608Z,68.94
2022-12-20T01:02:09.387Z,68.37
2022-12-20T01:04:36.114Z,67.92
2022-12-20T01:07:02.793Z,68.46
2022-12-20T01:09:29.500Z,68.45
2022-12-20T01:11:56.085Z,68.48
2022-12-20T01:14:22.763Z,69.95
2022-12-20T01:16:49.510Z,69.92
2022-12-20T01:19:18.255Z,69.45
2022-12-20T01:21:45.168Z,69.55
2022-12-20T01:24:14.483Z,69.57
2022-12-20T01:26:41.713Z,68.53
2022-12-20T01:29:08.884Z,68.25
2022-12-20T01:31:35.702Z,68.12
2022-12-20T01:34:03.733Z,68.08
2022-12-20T01:36:33.942Z,67.80
2022-12-20T01:39:06.611Z,67.18
2022-12-20T01:41:34.726Z,67.15
2022-12-20T01:44:02.729Z,67.05
2022-12-20T01:46:32.329Z,67.09
2022-12-20T01:49:14.076Z,67.72
2022-12-20T01:51:45.308Z,68.17
2022-12-20T01:54:16.827Z,68.71
2022-12-20T01:56:47.727Z,68.36
2022-12-20T01:59:14.865Z,67.79
2022-12-20T02:01:43.538Z,67.85
2022-12-20T02:04:10.397Z,67.28
2022-12-20T02:06:36.996Z,67.78
2022-12-20T02:09:05.542Z,68.22
2022-12-20T02:11:41.400Z,68.56
2022-12-20T02:14:35.993Z,68.93
2022-12-20T02:17:02.574Z,69.31
2022-12-20T02:19:40.950Z,69.66
2022-12-20T02:22:39.004Z,69.49
2022-12-20T02:26:04.741Z,69.31
2022-12-20T02:28:52.812Z,68.70
2022-12-20T02:31:27.481Z,69.04
2022-12-20T02:33:57.747Z,68.89
2022-12-20T02:36:25.583Z,68.90
2022-12-20T02:38:52.412Z,69.37
2022-12-20T02:41:27.189Z,69.37
2022-12-20T02:44:17.616Z,69.66
2022-12-20T02:46:45.768Z,69.04
2022-12-20T02:49:16.858Z,69.21
2022-12-20T02:51:47.344Z,68.77
2022-12-20T02:54:16.031Z,68.64
2022-12-20T02:56:50.350Z,68.42
2022-12-20T02:59:32.475Z,68.86
2022-12-20T03:01:59.627Z,67.77
2022-12-20T03:04:32.355Z,68.62
2022-12-20T03:07:02.439Z,68.39
2022-12-20T03:09:31.553Z,67.54
2022-12-20T03:11:58.508Z,67.96
2022-12-20T03:14:25.125Z,67.47
2022-12-20T03:16:52.336Z,67.69
2022-12-20T03:19:19.809Z,67.40
2022-12-20T03:21:46.755Z,67.67
2022-12-20T03:24:14.039Z,67.22
2022-12-20T03:26:41.395Z,66.90
2022-12-20T03:29:08.277Z,66.74
2022-12-20T03:31:35.810Z,67.06
2022-12-20T03:34:02.832Z,67.07
2022-12-20T03:36:29.612Z,67.36
2022-12-20T03:38:56.492Z,66.61
2022-12-20T03:41:24.243Z,66.62
2022-12-20T03:43:52.978Z,66.33
2022-12-20T03:46:19.671Z,66.41
2022-12-20T03:48:46.368Z,66.36
2022-12-20T03:51:13.060Z,66.42
2022-12-20T03:53:39.784Z,66.46
2022-12-20T03:56:06.606Z,66.35
2022-12-20T03:58:33.217Z,66.53
2022-12-20T04:00:59.806Z,67.03
2022-12-20T04:03:26.487Z,66.78
2022-12-20T04:05:53.187Z,66.53
2022-12-20T04:08:19.807Z,67.37
2022-12-20T04:11:04.534Z,67.39
2022-12-20T04:13:31.140Z,67.50
2022-12-20T04:16:00.611Z,67.56
2022-12-20T04:18:27.701Z,67.25
2022-12-20T04:20:54.972Z,67.64
2022-12-20T04:23:21.697Z,68.62
2022-12-20T04:25:48.279Z,67.69
2022-12-20T04:28:14.892Z,67.08
2022-12-20T04:30:41.486Z,67.73
2022-12-20T04:33:08.121Z,66.92
2022-12-20T04:35:34.841Z,66.67
2022-12-20T04:38:01.533Z,66.58
2022-12-20T04:40:28.129Z,66.02
2022-12-20T04:42:54.787Z,66.47
2022-12-20T04:45:21.434Z,66.59
2022-12-20T04:47:48.079Z,66.30
2022-12-20T04:50:14.869Z,66.10
2022-12-20T04:52:59.933Z,66.18
2022-12-20T04:55:26.580Z,66.13
2022-12-20T04:57:53.173Z,65.94
2022-12-20T05:00:20.350Z,66.14
2022-12-20T05:02:47.416Z,66.87
2022-12-20T05:05:14.238Z,66.65
2022-12-20T05:07:40.838Z,66.70
2022-12-20T05:10:07.922Z,67.21
2022-12-20T05:12:34.543Z,66.37
2022-12-20T05:15:01.127Z,66.57
2022-12-20T05:17:27.738Z,66.45
2022-12-20T05:19:54.340Z,66.01
2022-12-20T05:22:39.207Z,66.39
2022-12-20T05:25:24.320Z,66.45
2022-12-20T05:27:50.924Z,66.26
2022-12-20T05:30:17.622Z,66.12
2022-12-20T05:32:44.217Z,66.42
2022-12-20T05:35:10.827Z,66.74
2022-12-20T05:37:37.518Z,67.03
2022-12-20T05:40:04.977Z,67.85
2022-12-20T05:42:31.574Z,67.05
2022-12-20T05:44:58.220Z,66.51
2022-12-20T05:47:24.935Z,66.50
2022-12-20T05:49:51.570Z,66.58
2022-12-20T05:52:18.241Z,66.67
2022-12-20T05:54:44.859Z,66.70
2022-12-20T05:57:11.626Z,66.36
2022-12-20T05:59:38.511Z,66.39
2022-12-20T06:02:05.238Z,66.87
2022-12-20T06:04:32.778Z,67.24
2022-12-20T06:07:02.431Z,68.72
2022-12-20T06:09:30.188Z,69.22
2022-12-20T06:11:56.970Z,69.50
2022-12-20T06:14:23.594Z,69.39
2022-12-20T06:16:50.237Z,69.99
2022-12-20T06:19:21.398Z,69.85
2022-12-20T06:21:48.390Z,70.06
2022-12-20T06:24:15.619Z,69.33
2022-12-20T06:26:42.419Z,68.76
2022-12-20T06:29:14.029Z,68.67
2022-12-20T06:31:41.175Z,69.11
2022-12-20T06:34:08.016Z,69.26
2022-12-20T06:36:34.767Z,68.79
2022-12-20T06:39:06.131Z,68.02
2022-12-20T06:41:36.674Z,67.95
2022-12-20T06:44:03.683Z,67.97
2022-12-20T06:46:30.322Z,67.87
2022-12-20T06:48:57.446Z,67.82
2022-12-20T06:51:24.419Z,67.27
2022-12-20T06:53:51.339Z,67.85
2022-12-20T06:56:18.089Z,67.44
2022-12-20T06:58:46.619Z,67.53
2022-12-20T07:01:13.620Z,68.53
2022-12-20T07:03:40.604Z,68.71
2022-12-20T07:06:07.398Z,68.37
2022-12-20T07:08:33.996Z,69.07
2022-12-20T07:11:07.951Z,69.75
2022-12-20T07:13:35.042Z,69.71
2022-12-20T07:16:03.085Z,68.93
2022-12-20T07:18:30.213Z,69.72
2022-12-20T07:21:00.985Z,69.75
2022-12-20T07:23:27.823Z,69.84
2022-12-20T07:25:59.476Z,68.62
2022-12-20T07:28:27.587Z,67.95
2022-12-20T07:30:54.703Z,67.57
2022-12-20T07:33:21.485Z,67.81
2022-12-20T07:35:54.043Z,68.08
2022-12-20T07:38:21.067Z,67.79
2022-12-20T07:40:47.690Z,67.15
2022-12-20T07:43:14.304Z,67.51
2022-12-20T07:45:41.040Z,67.80
2022-12-20T07:48:12.578Z,67.54
2022-12-20T07:50:42.165Z,68.11
2022-12-20T07:53:10.522Z,69.12
2022-12-20T07:55:40.556Z,67.71
2022-12-20T07:58:09.661Z,67.33
2022-12-20T08:00:37.539Z,67.42
2022-12-20T08:03:09.023Z,67.31
2022-12-20T08:05:38.929Z,67.62
2022-12-20T08:08:06.235Z,67.55
2022-12-20T08:10:33.184Z,68.53
2022-12-20T08:13:00.277Z,69.02
2022-12-20T08:15:28.986Z,68.70
2022-12-20T08:17:55.637Z,68.55
2022-12-20T08:20:22.663Z,68.17
2022-12-20T08:22:49.240Z,67.36
2022-12-20T08:25:15.953Z,67.98
2022-12-20T08:27:42.621Z,70.23
2022-12-20T08:30:10.862Z,69.27
2022-12-20T08:32:38.322Z,68.24
2022-12-20T08:35:06.008Z,67.85
2022-12-20T08:37:32.757Z,67.74
2022-12-20T08:40:00.876Z,67.52
2022-12-20T08:42:28.565Z,67.15
2022-12-20T08:44:55.798Z,67.42
2022-12-20T08:47:22.388Z,67.72
2022-12-20T08:49:48.996Z,67.48
2022-12-20T08:52:15.679Z,67.53
2022-12-20T08:54:42.426Z,68.11
2022-12-20T08:57:09.173Z,67.45
2022-12-20T08:59:35.858Z,67.87
2022-12-20T09:02:02.612Z,68.20
2022-12-20T09:04:29.391Z,68.08
2022-12-20T09:06:55.981Z,67.47
2022-12-20T09:09:22.588Z,67.51
2022-12-20T09:11:49.194Z,68.34
2022-12-20T09:14:15.767Z,68.40
2022-12-20T09:16:42.398Z,67.92
2022-12-20T09:19:12.948Z,67.27
2022-12-20T09:21:39.559Z,67.68
2022-12-20T09:24:06.611Z,67.28
2022-12-20T09:26:35.283Z,67.18
2022-12-20T09:29:02.407Z,67.54
2022-12-20T09:31:29.123Z,66.83
2022-12-20T09:33:58.095Z,67.04
2022-12-20T09:36:26.369Z,66.90
2022-12-20T09:38:54.766Z,66.59
2022-12-20T09:41:41.684Z,67.02
2022-12-20T09:44:25.700Z,66.82
2022-12-20T09:47:03.498Z,66.65
2022-12-20T09:49:36.435Z,66.58
2022-12-20T09:52:18.276Z,66.72
2022-12-20T09:54:56.031Z,67.00
2022-12-20T09:57:28.759Z,67.03
2022-12-20T09:59:57.708Z,66.85
2022-12-20T10:02:56.604Z,66.31
2022-12-20T10:05:16.995Z,66.36
2022-12-20T10:07:59.577Z,66.28
2022-12-20T10:10:41.466Z,65.99
2022-12-20T10:13:18.362Z,65.40
2022-12-20T10:15:54.819Z,66.44
2022-12-20T10:18:45.502Z,68.02
2022-12-20T10:21:34.714Z,68.60
2022-12-20T10:24:04.919Z,69.50
2022-12-20T10:26:33.832Z,70.32
2022-12-20T10:29:00.422Z,68.03
2022-12-20T10:31:27.545Z,67.26
2022-12-20T10:33:54.271Z,66.33
2022-12-20T10:36:23.198Z,66.10
2022-12-20T10:38:52.555Z,66.32
2022-12-20T10:41:28.377Z,66.39
2022-12-20T10:44:01.316Z,65.68
2022-12-20T10:46:43.552Z,65.90
2022-12-20T10:49:26.888Z,66.13
2022-12-20T10:51:55.759Z,66.96
2022-12-20T10:54:30.195Z,66.41
2022-12-20T10:57:01.013Z,65.71
2022-12-20T10:59:36.184Z,65.88
2022-12-20T11:02:23.717Z,65.86
2022-12-20T11:05:10.544Z,66.45
2022-12-20T11:08:33.475Z,68.23
2022-12-20T11:10:39.995Z,66.90
2022-12-20T11:13:06.854Z,66.88
2022-12-20T11:15:37.129Z,67.47
2022-12-20T11:18:13.761Z,66.67
2022-12-20T11:20:43.089Z,66.08
2022-12-20T11:23:18.848Z,66.26
2022-12-20T11:26:04.735Z,66.01
2022-12-20T11:28:49.948Z,65.32
2022-12-20T11:31:50.091Z,65.50
2022-12-20T11:34:32.112Z,67.15
2022-12-20T11:37:24.147Z,67.05
2022-12-20T11:39:56.544Z,66.94
2022-12-20T11:43:00.801Z,66.20
2022-12-20T11:45:45.733Z,65.73
2022-12-20T11:48:22.659Z,65.69
2022-12-20T11:51:27.104Z,65.70
2022-12-20T11:54:09.779Z,65.30
2022-12-20T11:56:44.777Z,65.36
2022-12-20T11:59:25.008Z,65.28
2022-12-20T12:02:05.776Z,65.66
2022-12-20T12:04:39.057Z,66.26
2022-12-20T12:07:20.593Z,65.79
2022-12-20T12:10:01.622Z,65.20
2022-12-20T12:12:28.251Z,65.67
2022-12-20T12:15:00.960Z,67.68
2022-12-20T12:17:33.724Z,68.96
2022-12-20T12:20:15.790Z,67.95
2022-12-20T12:22:44.503Z,68.55
2022-12-20T12:25:16.519Z,67.28
2022-12-20T12:27:43.507Z,67.30
2022-12-20T12:30:15.587Z,66.53
2022-12-20T12:33:02.464Z,66.49
2022-12-20T12:36:15.317Z,65.96
2022-12-20T12:38:41.847Z,65.71
2022-12-20T12:41:49.129Z,65.89
2022-12-20T12:44:46.271Z,65.09
2022-12-20T12:47:25.070Z,64.88
2022-12-20T12:49:55.064Z,64.63
2022-12-20T12:52:41.347Z,64.58
2022-12-20T12:55:41.696Z,64.22
2022-12-20T12:58:23.639Z,64.54
2022-12-20T13:01:02.526Z,64.20
2022-12-20T13:03:42.052Z,65.10
2022-12-20T13:06:23.721Z,64.65
2022-12-20T13:09:22.550Z,64.19
2022-12-20T13:11:57.380Z,64.14
2022-12-20T13:14:29.378Z,64.41
2022-12-20T13:17:14.714Z,64.47
2022-12-20T13:19:53.376Z,64.73
2022-12-20T13:22:27.079Z,66.16
2022-12-20T13:25:04.275Z,66.77
2022-12-20T13:27:34.647Z,67.95
2022-12-20T13:30:01.269Z,68.96
2022-12-20T13:32:49.428Z,66.43
2022-12-20T13:35:24.948Z,65.74
2022-12-20T13:38:05.943Z,65.04
2022-12-20T13:40:41.079Z,64.65
2022-12-20T13:43:23.908Z,64.82
2022-12-20T13:46:02.101Z,64.61
2022-12-20T13:48:36.256Z,64.67
2022-12-20T13:51:03.139Z,64.28
2022-12-20T13:53:31.334Z,64.35
2022-12-20T13:55:57.995Z,64.29
2022-12-20T13:58:37.155Z,64.18
2022-12-20T14:01:06.827Z,64.63
2022-12-20T14:03:45.777Z,65.22
2022-12-20T14:06:14.624Z,66.19
2022-12-20T14:08:46.439Z,67.42
2022-12-20T14:11:13.007Z,67.73
2022-12-20T14:13:40.030Z,66.78
2022-12-20T14:16:20.169Z,65.86
2022-12-20T14:19:04.722Z,65.17
2022-12-20T14:21:35.519Z,65.03
2022-12-20T14:24:03.471Z,65.52
2022-12-20T14:26:44.768Z,65.07
2022-12-20T14:29:16.030Z,65.10
2022-12-20T14:31:48.537Z,64.52
2022-12-20T14:34:29.301Z,64.45
2022-12-20T14:37:24.122Z,64.65
2022-12-20T14:40:22.989Z,65.02
2022-12-20T14:42:49.737Z,64.41
2022-12-20T14:45:22.467Z,64.25
2022-12-20T14:48:06.735Z,64.83
2022-12-20T14:50:34.763Z,64.19
2022-12-20T14:53:02.162Z,64.77
2022-12-20T14:55:44.986Z,66.11
2022-12-20T14:58:29.000Z,64.97
2022-12-20T15:00:58.292Z,64.92
2022-12-20T15:03:25.782Z,65.14
2022-12-20T15:05:57.688Z,65.32
2022-12-20T15:08:35.079Z,65.36
2022-12-20T15:11:10.810Z,66.08
2022-12-20T15:13:55.641Z,65.54
2022-12-20T15:16:24.712Z,65.51
2022-12-20T15:19:02.279Z,65.65
2022-12-20T15:21:37.425Z,65.37
2022-12-20T15:24:09.737Z,65.46
2022-12-20T15:26:36.748Z,65.77
2022-12-20T15:29:03.567Z,65.96
2022-12-20T15:31:33.759Z,65.82
2022-12-20T15:34:04.511Z,65.98
2022-12-20T15:36:31.833Z,66.00
2022-12-20T15:39:15.391Z,66.22
2022-12-20T15:41:47.236Z,65.26
2022-12-20T15:44:20.828Z,65.18
2022-12-20T15:46:48.015Z,64.67
2022-12-20T15:49:16.329Z,64.68
2022-12-20T15:51:45.043Z,64.92
2022-12-20T15:54:35.835Z,64.76
2022-12-20T15:57:07.428Z,64.90
2022-12-20T15:59:59.808Z,64.50
2022-12-20T16:02:20.934Z,64.42
2022-12-20T16:04:47.694Z,65.20
2022-12-20T16:07:14.437Z,65.98
2022-12-20T16:09:41.055Z,65.58
2022-12-20T16:12:22.670Z,65.54
2022-12-20T16:14:49.427Z,65.11
2022-12-20T16:17:16.645Z,64.55
2022-12-20T16:19:44.216Z,67.16
2022-12-20T16:22:19.995Z,70.73
2022-12-20T16:24:47.990Z,71.12
2022-12-20T16:27:14.649Z,70.00
2022-12-20T16:29:41.657Z,69.31
2022-12-20T16:32:18.459Z,68.54
2022-12-20T16:34:45.664Z,67.87
2022-12-20T16:37:12.516Z,68.25
2022-12-20T16:39:39.718Z,67.61
2022-12-20T16:42:18.104Z,67.81
2022-12-20T16:44:46.098Z,67.65
2022-12-20T16:47:14.447Z,67.53
2022-12-20T16:49:47.317Z,67.50
2022-12-20T16:52:18.375Z,68.42
2022-12-20T16:54:45.027Z,67.93
2022-12-20T16:57:11.609Z,67.15
2022-12-20T16:59:38.543Z,66.56
2022-12-20T17:02:28.352Z,67.53
2022-12-20T17:04:55.420Z,68.59
2022-12-20T17:07:22.116Z,68.49
2022-12-20T17:09:48.805Z,68.68
2022-12-20T17:12:21.154Z,69.18
2022-12-20T17:14:48.941Z,67.89
2022-12-20T17:17:15.739Z,67.15
2022-12-20T17:19:42.405Z,66.86
2022-12-20T17:22:24.174Z,67.28
2022-12-20T17:24:52.166Z,67.75
2022-12-20T17:27:19.078Z,68.08
2022-12-20T17:29:45.931Z,68.84
2022-12-20T17:32:23.183Z,68.92
2022-12-20T17:34:50.246Z,67.73
2022-12-20T17:37:17.944Z,67.60
2022-12-20T17:39:44.681Z,66.73
2022-12-20T17:42:14.080Z,66.37
2022-12-20T17:44:40.706Z,66.63
2022-12-20T17:47:07.375Z,66.04
2022-12-20T17:49:33.984Z,65.68
2022-12-20T17:52:00.600Z,66.11
2022-12-20T17:54:32.075Z,66.10
2022-12-20T17:57:03.652Z,66.09
2022-12-20T17:59:30.690Z,66.25
2022-12-20T18:01:57.701Z,66.40
2022-12-20T18:04:24.650Z,66.55
2022-12-20T18:06:52.333Z,66.60
2022-12-20T18:09:21.646Z,66.79
2022-12-20T18:11:48.652Z,65.94
2022-12-20T18:14:15.892Z,66.11
2022-12-20T18:16:42.621Z,68.77
2022-12-20T18:19:15.748Z,69.59
2022-12-20T18:21:42.361Z,68.97
2022-12-20T18:24:13.688Z,69.82
2022-12-20T18:26:41.037Z,69.26
2022-12-20T18:29:08.098Z,68.53
2022-12-20T18:31:35.250Z,68.03
2022-12-20T18:34:02.621Z,67.95
2022-12-20T18:36:31.680Z,67.89
2022-12-20T18:39:00.902Z,68.08
2022-12-20T18:41:29.896Z,67.51
2022-12-20T18:43:59.098Z,66.80
2022-12-20T18:46:25.830Z,67.00
2022-12-20T18:48:54.623Z,66.67
2022-12-20T18:51:24.692Z,66.78
2022-12-20T18:53:54.616Z,66.38
2022-12-20T18:56:25.230Z,67.31
2022-12-20T18:58:52.552Z,66.92
2022-12-20T19:01:22.287Z,67.30
2022-12-20T19:03:50.384Z,67.40
2022-12-20T19:06:17.322Z,66.57
2022-12-20T19:08:43.993Z,66.32
2022-12-20T19:11:12.939Z,66.84
2022-12-20T19:13:40.148Z,67.47
2022-12-20T19:16:15.689Z,67.51
2022-12-20T19:18:43.594Z,67.11
2022-12-20T19:21:13.685Z,66.93
2022-12-20T19:23:41.994Z,67.08
2022-12-20T19:26:12.138Z,66.71
2022-12-20T19:28:40.084Z,66.44
2022-12-20T19:31:19.291Z,66.53
2022-12-20T19:33:48.222Z,65.97
2022-12-20T19:36:18.251Z,66.16
2022-12-20T19:38:47.313Z,66.03
2022-12-20T19:41:14.700Z,66.38
2022-12-20T19:43:42.114Z,66.54
2022-12-20T19:46:09.913Z,66.25
2022-12-20T19:48:37.413Z,65.99
2022-12-20T19:51:10.252Z,65.94
2022-12-20T19:53:37.624Z,65.83
2022-12-20T19:56:04.633Z,66.03
2022-12-20T19:58:31.260Z,66.25
2022-12-20T20:00:57.908Z,66.58
2022-12-20T20:03:24.706Z,67.01
2022-12-20T20:05:52.723Z,67.83
2022-12-20T20:08:19.549Z,68.15
2022-12-20T20:10:48.640Z,68.08
2022-12-20T20:13:15.403Z,67.90
2022-12-20T20:15:42.142Z,67.76
2022-12-20T20:18:09.153Z,68.12
2022-12-20T20:20:40.422Z,67.89
2022-12-20T20:23:07.057Z,67.52
2022-12-20T20:25:35.473Z,67.27
2022-12-20T20:28:03.227Z,66.61
2022-12-20T20:30:29.926Z,66.75
2022-12-20T20:32:56.598Z,69.17
2022-12-20T20:35:23.269Z,68.88
2022-12-20T20:37:49.871Z,70.00
2022-12-20T20:40:16.555Z,70.23
2022-12-20T20:42:43.156Z,71.06
2022-12-20T20:45:10.314Z,69.31
2022-12-20T20:47:36.911Z,68.71
2022-12-20T20:50:04.067Z,68.98
2022-12-20T20:52:30.685Z,68.82
2022-12-20T20:54:57.264Z,67.96
2022-12-20T20:57:23.864Z,67.67
2022-12-20T20:59:50.442Z,67.19
2022-12-20T21:02:17.253Z,67.27
2022-12-20T21:04:53.564Z,67.44
2022-12-20T21:07:30.501Z,67.93
2022-12-20T21:09:57.241Z,68.93
2022-12-20T21:12:23.892Z,68.33
2022-12-20T21:15:21.100Z,67.78
2022-12-20T21:17:37.097Z,67.45
2022-12-20T21:20:04.037Z,67.51
2022-12-20T21:22:30.861Z,67.42
2022-12-20T21:24:57.796Z,67.01
2022-12-20T21:27:24.612Z,67.00
2022-12-20T21:29:51.220Z,67.09
2022-12-20T21:32:18.089Z,67.58
2022-12-20T21:34:44.694Z,68.03
2022-12-20T21:37:11.273Z,67.91
2022-12-20T21:39:37.876Z,67.74
2022-12-20T21:42:04.496Z,67.78
2022-12-20T21:44:31.112Z,67.13
2022-12-20T21:46:57.789Z,67.26
2022-12-20T21:49:24.455Z,67.50
2022-12-20T21:51:51.088Z,67.30
2022-12-20T21:54:17.676Z,67.20
2022-12-20T21:56:44.326Z,66.69
2022-12-20T21:59:13.250Z,66.68
2022-12-20T22:01:40.161Z,66.79
2022-12-20T22:04:07.450Z,66.63
2022-12-20T22:06:34.965Z,66.62
2022-12-20T22:09:02.666Z,66.36
2022-12-20T22:11:29.271Z,68.83
2022-12-20T22:13:57.330Z,68.42
2022-12-20T22:16:26.483Z,67.71
2022-12-20T22:18:55.544Z,67.27
2022-12-20T22:21:26.096Z,67.68
2022-12-20T22:23:55.102Z,68.98
2022-12-20T22:26:23.925Z,70.05
2022-12-20T22:28:52.931Z,70.22
2022-12-20T22:31:19.908Z,68.50
2022-12-20T22:33:47.112Z,67.87
2022-12-20T22:36:15.433Z,67.85
2022-12-20T22:38:43.432Z,67.45
2022-12-20T22:41:11.289Z,67.73
2022-12-20T22:43:38.703Z,68.76
2022-12-20T22:46:05.606Z,69.80
2022-12-20T22:48:32.355Z,71.27
2022-12-20T22:51:04.395Z,71.73
2022-12-20T22:53:34.304Z,71.22
2022-12-20T22:56:01.648Z,69.49
2022-12-20T22:58:29.233Z,69.47
2022-12-20T23:01:00.769Z,69.19
2022-12-20T23:03:28.941Z,69.33
2022-12-20T23:05:58.325Z,69.27
2022-12-20T23:08:27.983Z,69.02
2022-12-20T23:11:13.261Z,68.71
2022-12-20T23:13:58.902Z,70.48
2022-12-20T23:16:26.102Z,69.93
2022-12-20T23:19:01.179Z,70.72
2022-12-20T23:21:48.223Z,70.02
2022-12-20T23:24:15.440Z,70.16
2022-12-20T23:26:42.843Z,70.49
2022-12-20T23:29:10.374Z,69.97
2022-12-20T23:31:37.158Z,71.35
2022-12-20T23:34:04.663Z,70.35
2022-12-20T23:36:33.322Z,70.55
2022-12-20T23:39:00.441Z,70.48
2022-12-20T23:41:27.515Z,71.08
2022-12-20T23:43:54.272Z,71.98
2022-12-20T23:46:21.995Z,72.83
2022-12-20T23:48:51.064Z,73.58
2022-12-20T23:51:18.323Z,74.80
2022-12-20T23:53:45.120Z,73.98
2022-12-20T23:56:17.702Z,74.45
2022-12-20T23:58:46.091Z,74.25
